Time;durP1;ratioP1;P1;durP2;ratioP2;P2;SDS_P1;SDS_P2;PMS_P1;PMS_P2;Temp;Humidity;BMP_temperature;BMP_pressure;BME280_temperature;BME280_humidity;BME280_pressure;Samples;Min_cycle;Max_cycle;Signal;HPM_P1;HPM_P2
2022/09/07 00:00:47;;;;;;;18.88;16.88;;;26.70;99.90;;;;;;4195748;28;20068;-76
2022/09/07 00:02:52;;;;;;;21.67;15.75;;;26.60;99.90;;;;;;4200664;28;20050;-74
2022/09/07 00:04:58;;;;;;;19.85;17.00;;;26.70;99.90;;;;;;4208865;28;20040;-76
2022/09/07 00:07:09;;;;;;;25.58;19.80;;;26.80;99.90;;;;;;4209107;28;20139;-75
2022/09/07 00:09:17;;;;;;;24.55;19.52;;;26.80;99.90;;;;;;4199829;28;20518;-75
2022/09/07 00:11:22;;;;;;;22.90;19.30;;;26.80;99.90;;;;;;4206106;28;20048;-76
2022/09/07 00:13:29;;;;;;;22.08;19.08;;;27.00;99.90;;;;;;4206073;28;20591;-75
2022/09/07 00:15:39;;;;;;;20.70;16.88;;;27.00;99.90;;;;;;4205316;28;20051;-76
2022/09/07 00:17:43;;;;;;;20.40;17.48;;;27.00;99.90;;;;;;4205598;28;20044;-75
2022/09/07 00:19:55;;;;;;;19.52;16.90;;;27.00;99.90;;;;;;4201179;28;20056;-75
2022/09/07 00:22:01;;;;;;;18.88;15.45;;;27.10;99.90;;;;;;4192238;28;20064;-76
2022/09/07 00:24:06;;;;;;;19.00;16.30;;;27.10;99.90;;;;;;4191045;28;20048;-75
2022/09/07 00:26:32;;;;;;;18.20;15.35;;;27.20;99.90;;;;;;4192456;28;20056;-75
2022/09/07 00:28:37;;;;;;;16.23;14.60;;;27.20;99.90;;;;;;4190662;28;20086;-75
2022/09/07 00:30:42;;;;;;;20.67;14.23;;;27.20;99.90;;;;;;4192104;28;20093;-75
2022/09/07 00:32:49;;;;;;;18.67;16.77;;;27.20;99.90;;;;;;4198560;28;20171;-75
2022/09/07 00:34:58;;;;;;;17.75;15.90;;;27.30;99.90;;;;;;4207530;28;20048;-75
2022/09/07 00:37:08;;;;;;;22.25;16.90;;;27.50;99.90;;;;;;4208477;28;20056;-76
2022/09/07 00:39:15;;;;;;;19.35;16.27;;;27.50;99.90;;;;;;4208368;28;20429;-76
2022/09/07 00:41:27;;;;;;;37.10;18.17;;;27.60;99.90;;;;;;4190434;28;20063;-76
2022/09/07 00:43:43;;;;;;;23.00;18.42;;;27.60;99.90;;;;;;4192285;28;20074;-76
2022/09/07 00:45:53;;;;;;;22.85;17.52;;;27.80;99.90;;;;;;4191961;28;20049;-75
2022/09/07 00:48:04;;;;;;;23.63;17.05;;;27.80;99.90;;;;;;4191718;28;20090;-76
2022/09/07 00:50:38;;;;;;;22.48;17.50;;;27.80;99.90;;;;;;4197369;28;20537;-75
2022/09/07 00:52:46;;;;;;;21.50;16.95;;;28.00;99.90;;;;;;4208765;28;20063;-75
2022/09/07 00:54:55;;;;;;;21.38;16.17;;;28.00;99.90;;;;;;4208509;28;20068;-75
2022/09/07 00:57:00;;;;;;;18.52;16.67;;;28.10;99.90;;;;;;4206885;28;20586;-76
2022/09/07 00:59:07;;;;;;;20.20;16.20;;;28.10;99.90;;;;;;4207212;28;20110;-75
2022/09/07 01:01:14;;;;;;;17.88;16.08;;;28.10;99.90;;;;;;4209347;28;20126;-76
2022/09/07 01:03:25;;;;;;;19.50;16.63;;;28.20;99.90;;;;;;4210846;28;20043;-76
2022/09/07 01:05:54;;;;;;;18.45;16.58;;;28.30;99.90;;;;;;4209208;28;20048;-76
2022/09/07 01:08:05;;;;;;;19.60;17.13;;;28.00;99.90;;;;;;4211626;28;20052;-77
2022/09/07 01:10:16;;;;;;;17.73;15.93;;;28.10;99.90;;;;;;4210511;28;20522;-76
2022/09/07 01:12:23;;;;;;;18.95;17.10;;;28.20;99.90;;;;;;4210814;28;20543;-76
2022/09/07 01:14:33;;;;;;;18.50;16.65;;;28.20;99.90;;;;;;4209744;28;20051;-76
2022/09/07 01:17:17;;;;;;;18.23;16.42;;;28.40;99.90;;;;;;4209425;28;20062;-76
2022/09/07 01:19:46;;;;;;;22.42;17.77;;;28.50;99.90;;;;;;4208744;28;20051;-76
2022/09/07 01:22:17;;;;;;;18.63;16.63;;;28.60;99.90;;;;;;4209623;28;20050;-76
2022/09/07 01:24:47;;;;;;;19.80;17.15;;;28.60;99.90;;;;;;4208598;28;20059;-76
2022/09/07 01:27:13;;;;;;;19.00;17.10;;;28.60;99.90;;;;;;4209192;28;20048;-76
2022/09/07 01:29:40;;;;;;;18.80;16.80;;;28.70;99.90;;;;;;4209720;28;20062;-76
2022/09/07 01:32:04;;;;;;;18.90;17.00;;;28.70;99.90;;;;;;4210505;28;20052;-76
2022/09/07 01:34:27;;;;;;;20.00;17.90;;;28.50;99.90;;;;;;4210623;28;20133;-76
2022/09/07 01:36:40;;;;;;;20.75;18.58;;;28.50;99.90;;;;;;4210495;28;20050;-76
2022/09/07 01:38:53;;;;;;;20.30;18.05;;;28.60;99.90;;;;;;4210473;28;20036;-75
2022/09/07 01:41:24;;;;;;;18.98;17.17;;;28.60;99.90;;;;;;4210615;28;20051;-76
2022/09/07 01:43:38;;;;;;;19.27;17.23;;;28.60;99.90;;;;;;4209651;28;20044;-76
2022/09/07 01:45:47;;;;;;;19.35;17.35;;;28.60;99.90;;;;;;4210135;28;20524;-75
2022/09/07 01:47:56;;;;;;;19.73;17.58;;;28.80;99.90;;;;;;4210264;28;20077;-76
2022/09/07 01:50:18;;;;;;;19.38;17.48;;;28.90;99.90;;;;;;4209866;28;20054;-76
2022/09/07 01:52:37;;;;;;;21.75;16.67;;;28.90;99.90;;;;;;4210552;28;20044;-75
2022/09/07 01:54:48;;;;;;;18.75;16.80;;;29.00;99.90;;;;;;4174259;28;20539;-76
2022/09/07 01:56:55;;;;;;;19.55;17.40;;;28.80;99.90;;;;;;4210094;28;20070;-76
2022/09/07 01:59:05;;;;;;;18.02;16.17;;;28.90;99.90;;;;;;4208713;28;20079;-76
2022/09/07 02:01:12;;;;;;;22.45;16.70;;;29.00;99.90;;;;;;4209783;28;20464;-75
2022/09/07 02:03:44;;;;;;;20.27;15.85;;;29.10;99.90;;;;;;4210190;28;20078;-75
2022/09/07 02:06:01;;;;;;;17.02;15.10;;;29.10;99.90;;;;;;4210096;28;20455;-77
2022/09/07 02:08:12;;;;;;;20.30;16.40;;;29.20;99.90;;;;;;4209912;28;20058;-75
2022/09/07 02:10:39;;;;;;;17.10;15.40;;;29.20;99.90;;;;;;4209809;28;20600;-76
2022/09/07 02:13:09;;;;;;;18.75;15.93;;;29.30;99.90;;;;;;4210305;28;20398;-76
2022/09/07 02:15:31;;;;;;;18.27;16.00;;;29.30;99.90;;;;;;4210063;28;20139;-77
2022/09/07 02:17:48;;;;;;;18.40;15.93;;;29.40;99.90;;;;;;4209615;28;20510;-76
2022/09/07 02:20:02;;;;;;;18.25;16.17;;;29.50;99.90;;;;;;4208991;28;20131;-75
2022/09/07 02:22:15;;;;;;;20.45;15.65;;;29.60;99.90;;;;;;4210741;28;20059;-75
2022/09/07 02:24:40;;;;;;;18.30;15.63;;;29.70;99.90;;;;;;4214740;28;20071;-77
2022/09/07 02:26:47;;;;;;;18.13;16.10;;;29.70;99.90;;;;;;4215138;28;20078;-75
2022/09/07 02:28:54;;;;;;;17.58;15.48;;;29.80;99.90;;;;;;4217339;28;20507;-75
2022/09/07 02:30:59;;;;;;;19.17;15.18;;;29.80;99.90;;;;;;4215462;28;20102;-75
2022/09/07 02:33:03;;;;;;;18.50;14.75;;;29.80;99.90;;;;;;4216751;28;20052;-76
2022/09/07 02:35:10;;;;;;;16.48;14.70;;;29.80;99.90;;;;;;4217042;28;20047;-76
2022/09/07 02:37:15;;;;;;;17.25;15.45;;;29.90;99.90;;;;;;4217676;28;20587;-76
2022/09/07 02:39:21;;;;;;;17.08;15.32;;;30.00;99.90;;;;;;4217054;28;20040;-76
2022/09/07 02:41:37;;;;;;;18.27;14.63;;;30.00;99.90;;;;;;4218399;28;20383;-77
2022/09/07 02:43:42;;;;;;;18.15;15.07;;;30.10;99.90;;;;;;4217780;28;20044;-76
2022/09/07 02:46:26;;;;;;;15.20;13.60;;;30.10;99.90;;;;;;4217239;28;20040;-77
2022/09/07 02:49:00;;;;;;;18.75;14.38;;;30.10;99.90;;;;;;4216561;28;20090;-77
2022/09/07 02:51:35;;;;;;;16.35;14.75;;;30.20;99.90;;;;;;4217681;28;20134;-76
2022/09/07 02:54:21;;;;;;;17.35;14.75;;;30.20;99.90;;;;;;4216632;28;20040;-77
2022/09/07 02:56:57;;;;;;;15.68;13.82;;;30.30;99.90;;;;;;4216382;28;20429;-75
2022/09/07 02:59:29;;;;;;;15.15;13.50;;;30.30;99.90;;;;;;4219219;28;20466;-77
2022/09/07 03:01:58;;;;;;;15.07;13.57;;;30.40;99.90;;;;;;4218878;28;20048;-78
2022/09/07 03:04:27;;;;;;;15.23;13.60;;;30.40;99.90;;;;;;4202465;28;20039;-77
2022/09/07 03:06:35;;;;;;;15.40;13.80;;;30.50;99.90;;;;;;4201674;28;20044;-77
2022/09/07 03:08:45;;;;;;;16.90;13.68;;;30.50;99.90;;;;;;4201906;28;20048;-77
2022/09/07 03:10:50;;;;;;;14.80;13.18;;;30.60;99.90;;;;;;4218787;28;20055;-78
2022/09/07 03:12:59;;;;;;;15.20;13.57;;;30.60;99.90;;;;;;4202835;28;20045;-77
2022/09/07 03:15:06;;;;;;;15.38;13.70;;;30.70;99.90;;;;;;4203166;28;20048;-77
2022/09/07 03:17:17;;;;;;;14.15;12.77;;;30.70;99.60;;;;;;4201965;28;20048;-78
2022/09/07 03:19:44;;;;;;;14.52;13.02;;;30.70;97.80;;;;;;4201408;28;20045;-76
2022/09/07 03:21:50;;;;;;;13.75;12.35;;;30.80;98.40;;;;;;4202441;28;20047;-76
2022/09/07 03:23:55;;;;;;;14.55;12.48;;;30.80;97.20;;;;;;4202929;28;20062;-77
2022/09/07 03:26:00;;;;;;;14.52;13.02;;;30.80;97.10;;;;;;4202060;28;20060;-77
2022/09/07 03:28:07;;;;;;;15.65;13.18;;;30.90;97.00;;;;;;4203390;28;20072;-77
2022/09/07 03:30:12;;;;;;;13.25;12.00;;;30.80;96.70;;;;;;4202756;28;20546;-77
2022/09/07 03:32:19;;;;;;;19.95;12.63;;;30.90;96.70;;;;;;4203614;28;20437;-77
2022/09/07 03:34:27;;;;;;;15.57;13.20;;;30.90;97.10;;;;;;4200738;28;20047;-77
2022/09/07 03:36:32;;;;;;;15.85;13.07;;;31.00;96.60;;;;;;4224759;28;20047;-77
2022/09/07 03:38:39;;;;;;;14.63;13.07;;;31.00;96.80;;;;;;4217180;28;20036;-78
2022/09/07 03:40:55;;;;;;;14.00;12.60;;;31.00;96.30;;;;;;4217412;28;20501;-78
2022/09/07 03:43:00;;;;;;;14.77;12.85;;;31.00;96.20;;;;;;4217288;28;20067;-77
2022/09/07 03:45:09;;;;;;;17.33;13.07;;;31.10;96.30;;;;;;4213743;28;20048;-78
2022/09/07 03:47:16;;;;;;;15.50;12.50;;;31.10;96.30;;;;;;4215153;28;20113;-78
2022/09/07 03:49:22;;;;;;;13.80;12.45;;;31.20;95.40;;;;;;4215068;28;20062;-78
2022/09/07 03:51:30;;;;;;;14.43;11.93;;;31.20;95.40;;;;;;4212599;28;20501;-77
2022/09/07 03:53:37;;;;;;;16.70;12.23;;;31.20;94.80;;;;;;4212358;28;20044;-77
2022/09/07 03:55:42;;;;;;;14.07;12.65;;;31.20;94.70;;;;;;4210868;28;20725;-78
2022/09/07 03:57:49;;;;;;;15.55;12.05;;;31.20;95.10;;;;;;4211918;28;20040;-77
2022/09/07 03:59:56;;;;;;;13.30;12.00;;;31.30;95.20;;;;;;4212774;28;20050;-77
2022/09/07 04:02:01;;;;;;;13.82;12.43;;;31.40;94.80;;;;;;4214431;28;20044;-78
2022/09/07 04:04:08;;;;;;;14.98;12.52;;;31.40;94.90;;;;;;4214150;28;20493;-77
2022/09/07 04:06:16;;;;;;;15.32;12.43;;;31.40;94.80;;;;;;4214375;28;20048;-77
2022/09/07 04:08:25;;;;;;;13.35;11.93;;;31.40;94.30;;;;;;4214618;28;20505;-78
2022/09/07 04:10:38;;;;;;;16.13;13.38;;;31.40;94.20;;;;;;4210908;28;20577;-77
2022/09/07 04:12:44;;;;;;;14.95;11.93;;;31.50;93.90;;;;;;4210646;28;20040;-76
2022/09/07 04:14:49;;;;;;;13.98;12.07;;;31.40;93.30;;;;;;4211473;28;20044;-77
2022/09/07 04:16:56;;;;;;;14.85;11.80;;;31.50;93.20;;;;;;4175545;28;20268;-77
2022/09/07 04:19:03;;;;;;;13.55;11.02;;;31.60;92.10;;;;;;4211144;28;20040;-76
2022/09/07 04:21:20;;;;;;;14.18;12.27;;;31.60;92.40;;;;;;4211474;28;20058;-77
2022/09/07 04:23:32;;;;;;;15.70;11.38;;;31.80;92.90;;;;;;4212051;28;20048;-77
2022/09/07 04:25:45;;;;;;;13.40;11.90;;;31.80;92.60;;;;;;4212125;28;20040;-77
2022/09/07 04:27:50;;;;;;;12.90;11.48;;;31.90;92.00;;;;;;4213077;28;20066;-76
2022/09/07 04:29:57;;;;;;;12.60;11.27;;;31.90;91.90;;;;;;4211851;28;20052;-75
2022/09/07 04:32:05;;;;;;;16.50;12.18;;;31.80;92.10;;;;;;4210706;28;20076;-77
2022/09/07 04:34:11;;;;;;;12.57;11.27;;;31.70;92.10;;;;;;4212473;28;20055;-77
2022/09/07 04:36:18;;;;;;;16.23;11.95;;;31.70;92.00;;;;;;4210800;28;20479;-77
2022/09/07 04:38:25;;;;;;;13.25;11.85;;;31.70;92.20;;;;;;4211671;28;20177;-77
2022/09/07 04:40:30;;;;;;;13.82;12.25;;;31.90;92.00;;;;;;4211570;28;20147;-77
2022/09/07 04:42:36;;;;;;;13.05;11.70;;;32.00;92.30;;;;;;4212193;28;20052;-77
2022/09/07 04:44:41;;;;;;;14.30;12.02;;;32.20;92.50;;;;;;4211659;28;20052;-77
2022/09/07 04:46:46;;;;;;;13.15;11.85;;;32.20;92.50;;;;;;4210933;28;20048;-77
2022/09/07 04:48:54;;;;;;;13.90;11.80;;;32.20;92.90;;;;;;4211223;28;20032;-78
2022/09/07 04:51:06;;;;;;;13.73;12.32;;;32.20;92.90;;;;;;4209743;28;20117;-77
2022/09/07 04:53:12;;;;;;;14.00;12.52;;;32.10;92.80;;;;;;4211406;28;20071;-77
2022/09/07 04:55:20;;;;;;;16.98;12.13;;;32.20;92.70;;;;;;4176245;28;20067;-77
2022/09/07 04:57:27;;;;;;;13.65;12.20;;;32.20;92.80;;;;;;4212025;28;20052;-78
2022/09/07 04:59:33;;;;;;;16.63;12.23;;;32.20;93.10;;;;;;4211768;28;20050;-77
2022/09/07 05:01:40;;;;;;;14.98;11.98;;;32.30;93.70;;;;;;4212451;28;20036;-77
2022/09/07 05:03:47;;;;;;;13.52;12.10;;;32.30;92.30;;;;;;4211647;28;20829;-77
2022/09/07 05:05:52;;;;;;;14.10;11.20;;;32.30;92.40;;;;;;4211719;28;20055;-77
2022/09/07 05:07:59;;;;;;;15.38;11.15;;;32.40;92.00;;;;;;4211114;28;20054;-78
2022/09/07 05:10:05;;;;;;;14.07;12.23;;;32.40;91.60;;;;;;4211416;28;20048;-78
2022/09/07 05:12:10;;;;;;;12.57;11.23;;;32.50;91.70;;;;;;4212301;28;20105;-77
2022/09/07 05:14:17;;;;;;;13.55;12.13;;;32.60;91.90;;;;;;4209487;28;20047;-78
2022/09/07 05:16:24;;;;;;;12.90;11.65;;;32.60;91.70;;;;;;4209176;28;20043;-77
2022/09/07 05:18:29;;;;;;;13.73;11.23;;;32.60;90.70;;;;;;4210014;28;20078;-77
2022/09/07 05:20:36;;;;;;;12.07;10.88;;;32.60;90.90;;;;;;4209675;28;20048;-77
2022/09/07 05:22:44;;;;;;;13.25;11.95;;;32.60;90.90;;;;;;4210050;28;20040;-77
2022/09/07 05:24:50;;;;;;;13.05;11.65;;;32.60;91.00;;;;;;4210093;28;20039;-77
2022/09/07 05:27:17;;;;;;;15.65;11.65;;;32.60;91.20;;;;;;4194788;28;20048;-78
2022/09/07 05:29:24;;;;;;;13.43;11.65;;;32.60;91.60;;;;;;4208544;28;20151;-77
2022/09/07 05:31:49;;;;;;;20.75;11.95;;;32.70;90.90;;;;;;4209845;28;20647;-77
2022/09/07 05:33:56;;;;;;;13.32;11.23;;;32.60;90.80;;;;;;4193366;28;20053;-77
2022/09/07 05:36:25;;;;;;;13.93;12.43;;;32.70;90.90;;;;;;4203446;28;20071;-78
2022/09/07 05:38:30;;;;;;;12.85;11.50;;;32.80;90.80;;;;;;4209029;28;20162;-78
2022/09/07 05:40:37;;;;;;;14.30;11.25;;;32.70;90.40;;;;;;4193135;28;20048;-78
2022/09/07 05:42:47;;;;;;;13.25;11.88;;;32.80;90.80;;;;;;4208004;28;20048;-79
2022/09/07 05:44:52;;;;;;;12.85;11.55;;;32.90;90.70;;;;;;4196139;28;20114;-79
2022/09/07 05:46:58;;;;;;;12.20;11.00;;;33.00;91.00;;;;;;4209227;28;20085;-79
2022/09/07 05:49:06;;;;;;;13.57;11.75;;;33.00;90.90;;;;;;4196696;28;20048;-78
2022/09/07 05:51:12;;;;;;;13.48;12.02;;;33.10;91.20;;;;;;4196700;28;20494;-78
2022/09/07 05:53:21;;;;;;;17.70;11.75;;;33.10;91.10;;;;;;4197446;28;20056;-78
2022/09/07 05:55:27;;;;;;;13.05;11.40;;;33.10;90.70;;;;;;4197174;28;20132;-78
2022/09/07 05:57:33;;;;;;;14.38;12.63;;;33.10;90.30;;;;;;4196656;28;20657;-78
2022/09/07 05:59:41;;;;;;;12.82;11.57;;;33.20;90.70;;;;;;4197386;28;20079;-79
2022/09/07 06:01:48;;;;;;;13.02;11.52;;;33.20;90.70;;;;;;4197099;28;20041;-78
2022/09/07 06:03:55;;;;;;;12.77;11.32;;;33.20;90.10;;;;;;4197403;28;20040;-78
2022/09/07 06:06:01;;;;;;;13.23;11.20;;;33.10;89.10;;;;;;4197336;28;20226;-79
2022/09/07 06:08:09;;;;;;;13.75;11.43;;;33.10;89.40;;;;;;4195819;28;20098;-78
2022/09/07 06:10:14;;;;;;;13.65;11.25;;;33.10;89.70;;;;;;4211476;28;20140;-78
2022/09/07 06:12:45;;;;;;;15.90;10.77;;;33.00;87.80;;;;;;4159995;28;20144;-79
2022/09/07 06:14:53;;;;;;;12.90;11.50;;;33.00;86.80;;;;;;4159198;28;20077;-78
2022/09/07 06:16:59;;;;;;;12.65;10.90;;;33.00;86.00;;;;;;4158068;28;20075;-78
2022/09/07 06:19:06;;;;;;;12.88;11.27;;;33.10;86.60;;;;;;4175720;28;20131;-78
2022/09/07 06:21:21;;;;;;;12.15;10.95;;;33.10;86.30;;;;;;4176011;28;20053;-78
2022/09/07 06:23:26;;;;;;;12.10;10.93;;;33.10;86.40;;;;;;4160113;28;20041;-79
2022/09/07 06:25:33;;;;;;;12.75;10.52;;;33.10;85.50;;;;;;4160199;28;20045;-79
2022/09/07 06:27:40;;;;;;;13.27;11.05;;;33.10;86.60;;;;;;4177786;28;20068;-79
2022/09/07 06:29:50;;;;;;;12.05;10.35;;;33.20;86.10;;;;;;4178291;28;20045;-78
2022/09/07 06:32:06;;;;;;;12.48;10.07;;;33.30;85.60;;;;;;4176685;28;20087;-78
2022/09/07 06:34:32;;;;;;;11.88;10.57;;;33.30;84.40;;;;;;4178143;28;20048;-79
2022/09/07 06:36:38;;;;;;;12.85;10.55;;;33.20;84.60;;;;;;4190696;28;20052;-75
2022/09/07 06:38:45;;;;;;;13.75;10.07;;;33.30;84.30;;;;;;4190464;28;20124;-79
2022/09/07 06:40:50;;;;;;;11.45;10.32;;;33.30;84.50;;;;;;4172946;28;20053;-79
2022/09/07 06:43:14;;;;;;;12.68;10.82;;;33.40;84.20;;;;;;4189951;28;20078;-79
2022/09/07 06:45:22;;;;;;;12.93;11.55;;;33.40;84.20;;;;;;4176278;28;20400;-77
2022/09/07 06:47:29;;;;;;;13.80;10.82;;;33.40;84.50;;;;;;4190925;28;20086;-75
2022/09/07 06:49:38;;;;;;;17.17;12.02;;;33.50;85.20;;;;;;4193130;28;20048;-75
2022/09/07 06:51:50;;;;;;;14.18;11.38;;;33.60;85.90;;;;;;4209745;28;20476;-75
2022/09/07 06:54:00;;;;;;;12.30;10.98;;;33.60;85.40;;;;;;4209350;28;20071;-76
2022/09/07 06:56:28;;;;;;;20.40;11.75;;;33.60;85.40;;;;;;4209917;28;20048;-76
2022/09/07 06:58:42;;;;;;;12.45;10.77;;;33.70;84.80;;;;;;4208655;28;20051;-76
2022/09/07 07:00:48;;;;;;;15.32;11.27;;;33.70;84.60;;;;;;4208998;28;20058;-76
2022/09/07 07:03:04;;;;;;;12.73;11.13;;;33.70;85.00;;;;;;4209498;28;20052;-75
2022/09/07 07:05:13;;;;;;;15.90;10.70;;;33.60;85.70;;;;;;4209678;28;20466;-75
2022/09/07 07:07:19;;;;;;;16.73;11.68;;;33.60;85.50;;;;;;4209110;28;20048;-77
2022/09/07 07:09:26;;;;;;;13.57;10.75;;;33.70;84.80;;;;;;4209052;28;20040;-76
2022/09/07 07:11:35;;;;;;;12.30;10.93;;;33.80;84.80;;;;;;4212738;28;20074;-76
2022/09/07 07:13:42;;;;;;;16.23;11.20;;;33.80;84.90;;;;;;4212620;28;20052;-76
2022/09/07 07:16:00;;;;;;;14.25;11.43;;;33.70;84.80;;;;;;4212183;28;20044;-76
2022/09/07 07:18:12;;;;;;;14.07;11.32;;;33.60;84.80;;;;;;4211904;28;20113;-77
2022/09/07 07:20:53;;;;;;;13.80;11.25;;;33.60;85.90;;;;;;4199800;28;20052;-76
2022/09/07 07:23:05;;;;;;;13.87;11.87;;;33.50;86.30;;;;;;4212656;28;20047;-76
2022/09/07 07:25:11;;;;;;;16.35;11.98;;;33.50;86.30;;;;;;4212483;28;20048;-76
2022/09/07 07:27:30;;;;;;;14.40;11.88;;;33.60;87.00;;;;;;4212110;28;20052;-77
2022/09/07 07:29:38;;;;;;;13.18;11.68;;;33.60;87.20;;;;;;4211198;28;20047;-77
2022/09/07 07:31:50;;;;;;;15.35;11.40;;;33.60;87.00;;;;;;4212244;28;20700;-77
2022/09/07 07:33:57;;;;;;;16.10;12.45;;;33.70;87.90;;;;;;4212614;28;20087;-75
2022/09/07 07:36:13;;;;;;;15.77;11.90;;;33.70;87.90;;;;;;4212454;28;20085;-77
2022/09/07 07:38:30;;;;;;;16.27;12.73;;;33.70;86.20;;;;;;4211132;28;20048;-76
2022/09/07 07:40:57;;;;;;;12.85;11.25;;;33.70;86.70;;;;;;4211500;28;20032;-75
2022/09/07 07:43:22;;;;;;;13.70;12.00;;;33.70;85.10;;;;;;4211841;28;20044;-77
2022/09/07 07:45:26;;;;;;;14.05;11.23;;;33.60;85.40;;;;;;4212091;28;20052;-75
2022/09/07 07:47:54;;;;;;;17.55;10.75;;;33.70;85.20;;;;;;4212007;28;20051;-75
2022/09/07 07:49:58;;;;;;;14.57;10.85;;;33.60;83.60;;;;;;4211932;28;20878;-74
2022/09/07 07:52:31;;;;;;;12.43;11.07;;;33.50;84.10;;;;;;4176215;28;20099;-75
2022/09/07 07:55:01;;;;;;;14.23;11.90;;;33.50;84.20;;;;;;4162680;28;20075;-75
2022/09/07 07:57:26;;;;;;;13.32;11.52;;;33.20;83.00;;;;;;4162551;28;20118;-76
2022/09/07 07:59:33;;;;;;;12.88;11.43;;;33.20;84.20;;;;;;4176298;28;20466;-76
2022/09/07 08:01:42;;;;;;;12.25;10.77;;;33.20;84.40;;;;;;4176167;28;20075;-76
2022/09/07 08:03:48;;;;;;;13.18;11.40;;;33.10;83.50;;;;;;4160729;28;20072;-76
2022/09/07 08:05:55;;;;;;;12.73;10.82;;;33.10;83.80;;;;;;4159517;28;20054;-76
2022/09/07 08:08:01;;;;;;;14.43;11.10;;;33.00;83.60;;;;;;4159798;28;20055;-75
2022/09/07 08:10:09;;;;;;;15.57;11.70;;;33.10;84.00;;;;;;4158857;28;20112;-74
2022/09/07 08:12:19;;;;;;;12.48;11.23;;;33.00;84.00;;;;;;4112116;28;20081;-75
2022/09/07 08:14:26;;;;;;;13.23;11.63;;;33.10;83.80;;;;;;4159689;28;20049;-75
2022/09/07 08:16:31;;;;;;;13.68;11.38;;;33.20;84.40;;;;;;4159421;28;20057;-75
2022/09/07 08:18:37;;;;;;;16.30;11.00;;;33.20;84.80;;;;;;4159524;28;20654;-76
2022/09/07 08:20:45;;;;;;;15.32;11.45;;;33.20;85.40;;;;;;4158450;28;20056;-75
2022/09/07 08:22:50;;;;;;;17.20;11.73;;;33.20;85.90;;;;;;4159388;28;20064;-75
2022/09/07 08:24:57;;;;;;;12.95;11.20;;;33.10;86.30;;;;;;4142857;28;20054;-76
2022/09/07 08:27:06;;;;;;;13.50;11.23;;;33.10;85.90;;;;;;4159593;28;20136;-75
2022/09/07 08:29:12;;;;;;;12.77;10.85;;;33.10;85.70;;;;;;4159484;28;20136;-74
2022/09/07 08:31:19;;;;;;;17.67;11.43;;;33.10;85.70;;;;;;4177001;28;20644;-75
2022/09/07 08:33:24;;;;;;;14.57;10.85;;;33.00;85.90;;;;;;4206044;28;20040;-76
2022/09/07 08:35:29;;;;;;;17.52;12.57;;;33.00;86.10;;;;;;4210767;28;20079;-77
2022/09/07 08:37:36;;;;;;;13.90;12.02;;;33.00;86.90;;;;;;4211728;28;20048;-76
2022/09/07 08:39:53;;;;;;;15.90;12.88;;;33.00;87.30;;;;;;4206691;28;20525;-77
2022/09/07 08:42:14;;;;;;;14.82;12.15;;;33.00;87.50;;;;;;4210370;28;20413;-77
2022/09/07 08:44:54;;;;;;;13.80;12.40;;;33.00;87.80;;;;;;4211211;28;20047;-76
2022/09/07 08:47:16;;;;;;;13.88;12.35;;;32.90;88.00;;;;;;4211222;28;20040;-77
2022/09/07 08:49:57;;;;;;;17.15;12.88;;;32.80;88.00;;;;;;4206558;28;20573;-76
2022/09/07 08:52:20;;;;;;;14.40;12.90;;;32.90;88.20;;;;;;4209886;28;20109;-76
2022/09/07 08:54:25;;;;;;;17.30;12.93;;;33.00;88.60;;;;;;4211238;28;20067;-76
2022/09/07 08:56:38;;;;;;;14.85;12.85;;;32.90;88.60;;;;;;4211014;28;20105;-78
2022/09/07 08:59:21;;;;;;;14.25;12.77;;;32.80;88.40;;;;;;4191918;28;20055;-78
2022/09/07 09:01:39;;;;;;;16.38;13.35;;;32.80;88.30;;;;;;4192066;28;20052;-77
2022/09/07 09:03:47;;;;;;;15.15;13.55;;;32.80;88.80;;;;;;4191842;28;20059;-77
2022/09/07 09:06:41;;;;;;;14.45;12.95;;;32.80;88.50;;;;;;4158044;28;20068;-76
2022/09/07 09:09:18;;;;;;;15.05;13.20;;;32.70;88.90;;;;;;4157693;28;20093;-78
2022/09/07 09:11:34;;;;;;;14.45;12.95;;;32.60;87.60;;;;;;4156966;28;20455;-77
2022/09/07 09:13:57;;;;;;;15.27;13.77;;;32.60;88.70;;;;;;4142114;28;20065;-77
2022/09/07 09:16:22;;;;;;;15.70;14.07;;;32.50;88.80;;;;;;4157105;28;20160;-77
2022/09/07 09:18:53;;;;;;;16.27;13.48;;;32.50;89.10;;;;;;4157617;28;20500;-78
2022/09/07 09:20:58;;;;;;;18.55;14.15;;;32.50;88.80;;;;;;4157340;28;20170;-77
2022/09/07 09:23:12;;;;;;;14.85;13.35;;;32.50;88.90;;;;;;4157223;28;20463;-78
2022/09/07 09:25:21;;;;;;;16.00;13.40;;;32.50;88.50;;;;;;4157966;28;20049;-77
2022/09/07 09:27:25;;;;;;;18.80;14.00;;;32.50;88.60;;;;;;4157185;28;20492;-77
2022/09/07 09:29:30;;;;;;;16.02;13.50;;;32.50;88.60;;;;;;4159193;28;20427;-77
2022/09/07 09:31:37;;;;;;;21.08;14.15;;;32.50;88.50;;;;;;4157374;28;20161;-77
2022/09/07 09:33:42;;;;;;;16.13;14.30;;;32.60;88.90;;;;;;4141650;28;20050;-77
2022/09/07 09:35:51;;;;;;;16.30;14.05;;;32.60;89.20;;;;;;4157700;28;20053;-77
2022/09/07 09:37:57;;;;;;;16.38;14.68;;;32.50;88.70;;;;;;4190800;28;20052;-77
2022/09/07 09:40:03;;;;;;;16.70;14.95;;;32.50;88.40;;;;;;4190765;28;20198;-77
2022/09/07 09:42:16;;;;;;;16.05;14.30;;;32.50;88.60;;;;;;4191405;28;20056;-78
2022/09/07 09:44:26;;;;;;;15.77;14.27;;;32.40;88.20;;;;;;4186908;28;20068;-77
2022/09/07 09:46:32;;;;;;;17.23;14.88;;;32.40;88.70;;;;;;4193465;28;20036;-77
2022/09/07 09:48:40;;;;;;;19.17;14.52;;;32.30;88.90;;;;;;4198059;28;20130;-77
2022/09/07 09:50:53;;;;;;;16.98;14.27;;;32.30;89.30;;;;;;4210126;28;20105;-76
2022/09/07 09:53:39;;;;;;;16.45;14.68;;;32.30;89.40;;;;;;4210411;28;20044;-76
2022/09/07 09:56:04;;;;;;;21.45;14.75;;;32.30;90.00;;;;;;4195828;28;20043;-73
2022/09/07 09:58:31;;;;;;;34.63;15.30;;;32.10;90.30;;;;;;4209510;28;20070;-69
2022/09/07 10:01:01;;;;;;;17.98;14.60;;;32.10;90.10;;;;;;4209113;28;20094;-76
2022/09/07 10:03:29;;;;;;;17.08;14.25;;;32.00;90.30;;;;;;4206988;28;20534;-76
2022/09/07 10:05:56;;;;;;;16.73;15.13;;;32.00;90.40;;;;;;4173549;28;20687;-76
2022/09/07 10:08:01;;;;;;;16.35;14.45;;;32.10;90.50;;;;;;4173594;28;20420;-76
2022/09/07 10:10:13;;;;;;;20.27;14.85;;;32.00;90.60;;;;;;4173091;28;20111;-76
2022/09/07 10:12:31;;;;;;;23.45;15.60;;;32.00;90.80;;;;;;4171537;28;20045;-76
2022/09/07 10:14:45;;;;;;;18.08;15.05;;;32.00;90.90;;;;;;4170397;28;20052;-77
2022/09/07 10:16:52;;;;;;;17.70;15.90;;;32.00;91.10;;;;;;4172981;28;20510;-77
2022/09/07 10:18:58;;;;;;;17.02;15.23;;;32.00;91.30;;;;;;4154774;28;20045;-77
2022/09/07 10:21:27;;;;;;;17.30;15.52;;;31.90;91.30;;;;;;4157189;28;20405;-76
2022/09/07 10:23:33;;;;;;;18.10;15.20;;;31.90;91.20;;;;;;4156180;28;20128;-77
2022/09/07 10:25:46;;;;;;;18.63;16.42;;;32.00;91.40;;;;;;4156492;28;20055;-77
2022/09/07 10:28:21;;;;;;;19.00;16.92;;;31.90;91.40;;;;;;4156449;28;20132;-77
2022/09/07 10:30:28;;;;;;;24.73;17.88;;;31.80;91.10;;;;;;4155513;28;20075;-77
2022/09/07 10:32:55;;;;;;;21.48;19.20;;;31.80;91.40;;;;;;4140845;28;20054;-76
2022/09/07 10:35:15;;;;;;;20.60;18.40;;;31.70;91.40;;;;;;4155756;28;20053;-73
2022/09/07 10:37:46;;;;;;;20.48;18.25;;;31.70;91.40;;;;;;4154638;28;20435;-77
2022/09/07 10:40:11;;;;;;;21.83;18.13;;;31.70;91.20;;;;;;4156988;28;20046;-71
2022/09/07 10:42:27;;;;;;;19.98;17.33;;;31.70;91.40;;;;;;4156045;28;20056;-74
2022/09/07 10:44:48;;;;;;;20.08;17.55;;;31.70;91.50;;;;;;4191147;28;20124;-74
2022/09/07 10:47:11;;;;;;;24.30;19.80;;;31.60;91.50;;;;;;4194643;28;20131;-74
2022/09/07 10:49:29;;;;;;;34.05;24.85;;;31.60;91.50;;;;;;4194464;28;20058;-79
2022/09/07 10:52:04;;;;;;;30.98;24.67;;;31.60;91.40;;;;;;4196482;28;20136;-78
2022/09/07 10:54:34;;;;;;;33.85;27.75;;;31.60;91.60;;;;;;4196147;28;20049;-77
2022/09/07 10:56:57;;;;;;;35.63;27.92;;;31.60;91.70;;;;;;4194550;28;20040;-75
2022/09/07 10:59:32;;;;;;;36.58;27.17;;;31.50;91.70;;;;;;4194829;28;20044;-74
2022/09/07 11:02:23;;;;;;;29.80;23.40;;;31.50;92.10;;;;;;4193898;28;20403;-75
2022/09/07 11:05:01;;;;;;;29.20;20.75;;;31.50;92.40;;;;;;4196009;28;20048;-76
2022/09/07 11:07:47;;;;;;;21.73;17.95;;;31.50;92.70;;;;;;4195286;28;20045;-75
2022/09/07 11:10:14;;;;;;;19.30;17.27;;;31.50;92.60;;;;;;4196210;28;20410;-75
2022/09/07 11:12:23;;;;;;;24.83;18.25;;;31.40;92.80;;;;;;4194815;28;20659;-75
2022/09/07 11:14:47;;;;;;;23.52;17.95;;;31.40;93.00;;;;;;4194708;28;20109;-74
2022/09/07 11:16:57;;;;;;;26.05;18.20;;;31.40;93.40;;;;;;4195358;28;20036;-75
2022/09/07 11:19:15;;;;;;;25.42;19.75;;;31.30;93.40;;;;;;4193835;28;20523;-74